Catoosa, Oklahoma
Current Conditions -  °F | °C
As of 7:53 AM on Friday 24 Oct 2014 (Local Time) from KTUL Reporting Station
Broken Clouds Broken Clouds  
Wind Chill: 59°   Ceiling: 25000
Heat Index: 59°   Visibility: 10mi
Dew Point: 54°   Wind: 7mph
Humidity: 83%   Direction: 160°SSE
Pressure: 30.1"   Gusts: NA
Location:  36.19°N, 95.75°W
Report Text: KTUL 241253Z 16006KT 10SM FEW048 BKN250 15/12 A3010 RMK AO2 SLP189 T01500122
Loading
Personal Weather Stations






























Interactive Weather Map
Tropical Storm Tracking
New forecast layout! Learn more

10-Day Weather Forecast

Advertisements
Track Severe Weather on mobile